Time;durP1;ratioP1;P1;durP2;ratioP2;P2;SDS_P1;SDS_P2;PMS_P1;PMS_P2;Temp;Humidity;BMP_temperature;BMP_pressure;BME280_temperature;BME280_humidity;BME280_pressure;Samples;Min_cycle;Max_cycle;Signal;HPM_P1;HPM_P2
2021/10/01 00:02:04;;;;;;;8.00;4.20;;;;;;;7.66;46.85;101995.27;117273;1182;21841;-59
2021/10/01 00:04:36;;;;;;;;;;;;;;;7.61;46.80;101996.89;117300;1182;21825;-59
2021/10/01 00:07:05;;;;;;;7.00;3.50;;;;;;;7.56;46.87;102002.35;117291;1185;23708;-59
2021/10/01 00:09:34;;;;;;;6.50;3.90;;;;;;;7.50;47.07;102003.06;117259;1186;23448;-59
2021/10/01 00:12:06;;;;;;;10.90;4.90;;;;;;;7.48;47.02;102003.36;117331;1187;21851;-59
2021/10/01 00:14:36;;;;;;;6.20;3.60;;;;;;;7.50;47.13;102002.19;117449;1186;23547;-59
2021/10/01 00:17:25;;;;;;;8.40;4.20;;;;;;;7.48;47.12;102001.59;117389;1186;21855;-59
2021/10/01 00:19:55;;;;;;;7.40;3.70;;;;;;;7.44;47.20;102002.55;117319;1182;23602;-59
2021/10/01 00:22:24;;;;;;;9.00;3.80;;;;;;;7.42;47.25;101997.61;117387;1186;21854;-59
2021/10/01 00:25:13;;;;;;;8.40;4.00;;;;;;;7.39;47.26;102000.50;117361;1185;22648;-58
2021/10/01 00:27:44;;;;;;;8.20;3.70;;;;;;;7.37;47.12;101999.58;117377;1186;22321;-58
2021/10/01 00:30:13;;;;;;;8.20;3.70;;;;;;;7.36;47.19;101995.17;117285;1185;21882;-59
2021/10/01 00:32:44;;;;;;;7.60;3.90;;;;;;;7.34;47.17;101997.57;117264;1185;21871;-59
2021/10/01 00:35:14;;;;;;;6.60;4.00;;;;;;;7.33;47.16;102000.33;117299;1186;22907;-59
2021/10/01 00:37:57;;;;;;;7.00;3.70;;;;;;;7.31;47.24;102000.63;117262;1186;23544;-59
2021/10/01 00:40:27;;;;;;;7.50;3.90;;;;;;;7.33;47.27;101996.65;117393;1186;23438;-59
2021/10/01 00:42:56;;;;;;;7.60;3.90;;;;;;;7.32;47.08;101998.36;117357;1186;21845;-59
2021/10/01 00:45:26;;;;;;;7.80;3.80;;;;;;;7.30;47.11;101997.63;117355;1182;22722;-59
2021/10/01 00:47:55;;;;;;;7.50;4.40;;;;;;;7.28;47.25;101993.05;117316;1185;22993;-59
2021/10/01 00:50:25;;;;;;;6.50;4.10;;;;;;;7.26;47.29;101990.20;117383;1182;22620;-59
2021/10/01 00:52:58;;;;;;;7.30;4.10;;;;;;;7.25;47.14;101992.27;117256;1185;22481;-59
2021/10/01 00:55:27;;;;;;;8.50;4.20;;;;;;;7.27;47.02;101993.01;116955;1185;23631;-59
2021/10/01 00:57:57;;;;;;;10.10;4.00;;;;;;;7.23;47.34;101995.00;117301;1185;24297;-58
2021/10/01 01:00:30;;;;;;;6.90;4.20;;;;;;;7.24;47.39;101994.17;117307;1182;23533;-59
2021/10/01 01:03:02;;;;;;;7.10;4.00;;;;;;;7.24;47.41;101997.83;117372;1185;23066;-58
2021/10/01 01:05:47;;;;;;;9.10;4.00;;;;;;;7.24;47.52;101988.91;117353;1176;24146;-58
2021/10/01 01:08:16;;;;;;;7.90;5.00;;;;;;;7.25;47.18;101987.04;117419;1185;21895;-59
2021/10/01 01:10:52;;;;;;;7.50;4.40;;;;;;;7.24;47.45;101989.63;117231;1186;22209;-59
2021/10/01 01:13:33;;;;;;;8.20;4.30;;;;;;;7.24;47.36;101987.88;117240;1186;21852;-58
2021/10/01 01:16:09;;;;;;;7.10;4.20;;;;;;;7.25;47.64;101988.42;117265;1176;23594;-58
2021/10/01 01:18:42;;;;;;;9.20;4.30;;;;;;;7.25;47.31;101987.55;117332;1185;21963;-59
2021/10/01 01:21:43;;;;;;;10.40;4.20;;;;;;;7.24;47.49;101984.91;117274;1186;21945;-59
2021/10/01 01:24:31;;;;;;;7.50;4.30;;;;;;;7.23;47.45;101981.74;117335;1186;21855;-59
2021/10/01 01:27:08;;;;;;;8.90;4.80;;;;;;;7.17;47.46;101982.63;117291;1185;23573;-59
2021/10/01 01:29:47;;;;;;;8.80;4.20;;;;;;;7.16;47.44;101983.10;117298;1182;22918;-58
2021/10/01 01:32:19;;;;;;;8.90;4.70;;;;;;;7.16;47.43;101985.56;117258;1182;21995;-58
2021/10/01 01:34:59;;;;;;;9.40;5.00;;;;;;;7.15;47.51;101985.17;117238;1185;23008;-58
2021/10/01 01:37:34;;;;;;;9.50;4.60;;;;;;;7.16;47.55;101986.60;117272;1186;22992;-59
2021/10/01 01:40:04;;;;;;;10.80;4.50;;;;;;;7.18;47.38;101983.33;117310;1185;23650;-58
2021/10/01 01:42:33;;;;;;;7.60;4.40;;;;;;;7.17;47.45;101982.26;117345;1182;23531;-59
2021/10/01 01:45:03;;;;;;;10.50;5.40;;;;;;;7.16;47.58;101976.83;117013;1189;21860;-58
2021/10/01 01:47:31;;;;;;;10.40;4.60;;;;;;;7.15;47.65;101974.19;117269;1185;21888;-59
2021/10/01 01:50:01;;;;;;;9.90;5.70;;;;;;;7.14;47.59;101970.48;117309;1182;23568;-58
2021/10/01 01:52:30;;;;;;;8.10;4.30;;;;;;;7.12;47.64;101968.70;117341;1185;21871;-58
2021/10/01 01:54:58;;;;;;;8.10;5.30;;;;;;;7.11;47.75;101968.66;117221;1186;21845;-58
2021/10/01 01:57:26;;;;;;;9.30;5.10;;;;;;;7.11;47.53;101970.60;117140;1187;21858;-58
2021/10/01 01:59:55;;;;;;;11.10;4.70;;;;;;;7.10;47.60;101974.56;117227;1185;23545;-59
2021/10/01 02:02:24;;;;;;;7.80;4.60;;;;;;;7.09;47.84;101978.55;117389;1186;23624;-58
2021/10/01 02:04:52;;;;;;;11.00;5.30;;;;;;;7.11;47.62;101983.86;117355;1183;21863;-59
2021/10/01 02:07:21;;;;;;;11.10;5.60;;;;;;;7.11;47.70;101987.34;117191;1186;23558;-59
2021/10/01 02:09:49;;;;;;;8.10;5.20;;;;;;;7.12;47.80;101988.23;117180;1188;23819;-59
2021/10/01 02:12:17;;;;;;;11.80;5.60;;;;;;;7.13;47.56;101985.48;117207;1188;23470;-58
2021/10/01 02:14:49;;;;;;;9.10;5.10;;;;;;;7.12;47.56;101986.86;117253;1186;23543;-58
2021/10/01 02:17:19;;;;;;;10.00;5.20;;;;;;;7.12;47.93;101984.23;117228;1186;23637;-58
2021/10/01 02:19:48;;;;;;;7.80;5.50;;;;;;;7.14;47.66;101986.39;117317;1186;23008;-59
2021/10/01 02:22:17;;;;;;;8.90;5.70;;;;;;;7.15;47.68;101988.14;117225;1186;24054;-59
2021/10/01 02:24:45;;;;;;;7.60;5.20;;;;;;;7.16;47.84;101990.25;117347;1180;21855;-58
2021/10/01 02:27:20;;;;;;;11.90;5.60;;;;;;;7.16;47.81;101990.78;117365;1185;21867;-58
2021/10/01 02:29:56;;;;;;;11.30;5.40;;;;;;;7.13;47.97;101989.33;117449;1182;23441;-59
2021/10/01 02:32:31;;;;;;;12.60;5.50;;;;;;;7.12;47.85;101990.33;117210;1186;21854;-58
2021/10/01 02:35:00;;;;;;;8.80;5.10;;;;;;;7.09;47.70;101992.52;117307;1182;21862;-58
2021/10/01 02:37:28;;;;;;;10.60;6.00;;;;;;;7.07;47.93;101990.73;117224;1185;22832;-57
2021/10/01 02:39:56;;;;;;;10.40;5.20;;;;;;;7.03;47.80;101992.36;117245;1185;21859;-58
2021/10/01 02:42:24;;;;;;;10.50;6.00;;;;;;;6.97;48.03;101991.84;117227;1189;21841;-59
2021/10/01 02:44:55;;;;;;;10.80;5.90;;;;;;;6.95;48.08;101991.60;117395;1186;21859;-58
2021/10/01 02:47:31;;;;;;;9.20;5.40;;;;;;;6.95;47.72;101993.38;117281;1189;21858;-58
2021/10/01 02:50:00;;;;;;;7.80;5.60;;;;;;;6.86;47.94;101991.17;117385;1182;23704;-59
2021/10/01 02:52:40;;;;;;;9.00;5.80;;;;;;;6.78;48.27;101990.26;117292;1189;24003;-59
2021/10/01 02:55:18;;;;;;;12.20;5.80;;;;;;;6.74;48.02;101993.26;117005;1190;21856;-59
2021/10/01 02:57:50;;;;;;;10.10;5.80;;;;;;;6.69;47.95;101997.33;117125;1185;21861;-59
2021/10/01 03:00:18;;;;;;;10.80;5.60;;;;;;;6.67;48.12;101997.77;117182;1186;21871;-59
2021/10/01 03:02:48;;;;;;;8.40;5.50;;;;;;;6.75;47.94;101999.40;117158;1186;23256;-59
2021/10/01 03:05:16;;;;;;;13.70;6.10;;;;;;;6.78;47.94;101997.25;117219;1182;22916;-59
2021/10/01 03:07:44;;;;;;;8.30;4.70;;;;;;;6.67;48.22;102001.77;117137;1181;21858;-59
2021/10/01 03:10:13;;;;;;;10.00;5.10;;;;;;;6.63;48.09;102001.15;117095;1186;23609;-58
2021/10/01 03:12:42;;;;;;;9.70;5.70;;;;;;;6.61;48.08;101997.77;117252;1186;21848;-59
2021/10/01 03:15:30;;;;;;;10.60;6.30;;;;;;;6.60;48.34;102001.41;117160;1188;21859;-59
2021/10/01 03:17:58;;;;;;;9.40;5.80;;;;;;;6.61;48.19;101999.02;117191;1186;23546;-59
2021/10/01 03:20:26;;;;;;;14.70;5.00;;;;;;;6.62;48.17;101999.55;116900;1191;21858;-58
2021/10/01 03:22:55;;;;;;;10.30;5.60;;;;;;;6.57;48.21;102002.71;117208;1186;24180;-58
2021/10/01 03:25:23;;;;;;;10.40;5.60;;;;;;;6.55;48.13;102003.89;117066;1187;21906;-58
2021/10/01 03:27:51;;;;;;;10.90;5.80;;;;;;;6.56;48.15;102005.48;117033;1188;21856;-57
2021/10/01 03:30:20;;;;;;;9.20;5.80;;;;;;;6.56;48.28;102005.65;117301;1185;23554;-58
2021/10/01 03:32:48;;;;;;;11.50;6.10;;;;;;;6.58;48.44;102006.56;117113;1186;21864;-58
2021/10/01 03:35:21;;;;;;;13.40;5.40;;;;;;;6.66;48.00;102011.54;116981;1188;23569;-58
2021/10/01 03:37:51;;;;;;;8.90;5.70;;;;;;;6.74;48.19;102011.76;117160;1186;23566;-58
2021/10/01 03:40:21;;;;;;;11.70;6.10;;;;;;;6.77;47.98;102010.46;117287;1182;22324;-59
2021/10/01 03:42:49;;;;;;;13.00;5.40;;;;;;;6.78;48.06;102015.55;117142;1186;21885;-59
2021/10/01 03:45:17;;;;;;;11.90;5.50;;;;;;;6.78;48.07;102015.20;117067;1186;21910;-58
2021/10/01 03:47:45;;;;;;;11.00;5.80;;;;;;;6.73;48.26;102014.86;117177;1186;21858;-49
2021/10/01 03:50:22;;;;;;;10.70;5.50;;;;;;;6.67;48.29;102017.48;117232;1182;23547;-47
2021/10/01 03:52:51;;;;;;;11.90;5.90;;;;;;;6.65;48.27;102016.39;117140;1186;23573;-48
2021/10/01 03:55:21;;;;;;;15.40;5.80;;;;;;;6.70;48.23;102015.66;117267;1188;21857;-48
2021/10/01 03:57:52;;;;;;;15.80;6.00;;;;;;;6.79;48.54;102019.77;117284;1182;23569;-48
2021/10/01 04:00:20;;;;;;;16.70;6.80;;;;;;;6.85;48.49;102016.27;117265;1185;22907;-48
2021/10/01 04:02:48;;;;;;;11.00;5.80;;;;;;;6.90;48.45;102018.68;117302;1185;21855;-47
2021/10/01 04:05:17;;;;;;;14.00;6.60;;;;;;;6.96;48.56;102015.72;117193;1185;21861;-48
2021/10/01 04:07:45;;;;;;;21.80;6.50;;;;;;;7.02;48.54;102017.63;117283;1185;21854;-48
2021/10/01 04:10:16;;;;;;;12.00;6.20;;;;;;;7.18;48.42;102018.95;117310;1186;23604;-47
2021/10/01 04:12:44;;;;;;;12.10;6.40;;;;;;;7.26;48.27;102022.67;117304;1184;23617;-48
2021/10/01 04:15:13;;;;;;;15.40;7.30;;;;;;;7.34;48.27;102023.39;117304;1186;23557;-48
2021/10/01 04:17:41;;;;;;;12.00;5.70;;;;;;;7.39;48.54;102025.64;117242;1188;21880;-48
2021/10/01 04:20:09;;;;;;;13.00;6.30;;;;;;;7.43;48.43;102025.23;117272;1185;21853;-47
2021/10/01 04:22:40;;;;;;;15.60;7.30;;;;;;;7.49;48.22;102029.75;117262;1185;21880;-48
2021/10/01 04:25:12;;;;;;;16.20;6.90;;;;;;;7.55;48.37;102026.08;117308;1182;21921;-59
2021/10/01 04:27:40;;;;;;;17.80;6.00;;;;;;;7.61;48.39;102026.92;117250;1187;21857;-59
2021/10/01 04:30:10;;;;;;;11.70;5.70;;;;;;;7.56;48.75;102032.21;117379;1185;23553;-58
2021/10/01 04:32:44;;;;;;;12.00;6.50;;;;;;;7.61;48.69;102031.13;117317;1180;21864;-59
2021/10/01 04:35:13;;;;;;;11.70;6.00;;;;;;;7.69;48.76;102032.91;117368;1186;21846;-59
2021/10/01 04:37:41;;;;;;;12.70;6.40;;;;;;;7.77;48.87;102031.88;117320;1186;23547;-59
2021/10/01 04:40:10;;;;;;;11.50;6.20;;;;;;;7.85;48.77;102033.48;117260;1186;22652;-59
2021/10/01 04:42:38;;;;;;;14.40;6.80;;;;;;;7.92;48.71;102030.52;117349;1185;21892;-59
2021/10/01 04:45:06;;;;;;;13.90;6.10;;;;;;;7.98;48.79;102030.81;117274;1186;21855;-60
2021/10/01 04:47:37;;;;;;;11.20;7.10;;;;;;;8.04;48.84;102031.16;117371;1185;21857;-59
2021/10/01 04:50:06;;;;;;;14.60;6.70;;;;;;;8.12;48.86;102031.89;117302;1188;21849;-59
2021/10/01 04:52:34;;;;;;;15.50;6.00;;;;;;;8.20;48.83;102035.38;117298;1185;22931;-59
2021/10/01 04:55:03;;;;;;;12.60;7.10;;;;;;;8.22;48.95;102034.73;117251;1185;23468;-59
2021/10/01 04:57:32;;;;;;;9.70;5.90;;;;;;;8.27;48.96;102037.48;117292;1185;21871;-58
2021/10/01 05:00:00;;;;;;;10.70;6.20;;;;;;;8.31;48.94;102040.72;117332;1185;23617;-58
2021/10/01 05:02:29;;;;;;;12.40;6.30;;;;;;;8.37;48.93;102038.06;117336;1185;23538;-59
2021/10/01 05:04:58;;;;;;;10.40;6.20;;;;;;;8.53;48.88;102036.35;117403;1185;23563;-59
2021/10/01 05:07:27;;;;;;;10.10;6.10;;;;;;;8.67;48.79;102036.82;117290;1185;22941;-58
2021/10/01 05:09:55;;;;;;;12.40;6.40;;;;;;;8.78;48.83;102041.46;117325;1186;23541;-58
2021/10/01 05:12:23;;;;;;;8.90;5.80;;;;;;;8.90;48.86;102042.59;117372;1183;23541;-59
2021/10/01 05:14:52;;;;;;;12.00;6.70;;;;;;;9.03;48.88;102042.35;117286;1183;22997;-59
2021/10/01 05:17:22;;;;;;;9.60;6.90;;;;;;;9.15;49.07;102041.36;117306;1182;23121;-59
2021/10/01 05:19:50;;;;;;;12.70;7.00;;;;;;;9.23;49.19;102045.19;117219;1185;23544;-58
2021/10/01 05:22:19;;;;;;;15.00;6.30;;;;;;;9.36;49.45;102048.42;117301;1185;21858;-59
2021/10/01 05:24:47;;;;;;;10.90;6.30;;;;;;;9.48;49.40;102046.02;117384;1181;23567;-59
2021/10/01 05:27:15;;;;;;;13.00;6.20;;;;;;;9.60;49.43;102045.90;117315;1183;22988;-59
2021/10/01 05:29:44;;;;;;;10.40;5.90;;;;;;;9.72;49.46;102042.42;117301;1183;23544;-59
2021/10/01 05:32:13;;;;;;;9.10;5.90;;;;;;;9.85;49.57;102041.95;117325;1186;23544;-59
2021/10/01 05:34:42;;;;;;;12.90;6.20;;;;;;;10.02;49.70;102042.23;117419;1182;22947;-59
2021/10/01 05:37:10;;;;;;;12.10;6.30;;;;;;;10.30;49.62;102041.46;117416;1182;23567;-59
2021/10/01 05:39:39;;;;;;;13.40;5.70;;;;;;;10.55;49.39;102038.00;117273;1185;21870;-59
2021/10/01 05:42:09;;;;;;;10.30;6.70;;;;;;;10.66;49.36;102040.27;117278;1185;21863;-59
2021/10/01 05:44:38;;;;;;;14.00;6.30;;;;;;;10.75;49.58;102041.43;117339;1186;22258;-58
2021/10/01 05:47:07;;;;;;;13.40;6.90;;;;;;;10.93;49.78;102042.55;117306;1183;23648;-59
2021/10/01 05:49:40;;;;;;;10.90;6.40;;;;;;;11.15;49.80;102044.94;117332;1185;23557;-59
2021/10/01 05:52:57;;;;;;;10.10;5.90;;;;;;;11.40;49.89;102044.67;117403;1185;22159;-59
2021/10/01 05:55:03;;;;;;;12.60;7.20;;;;;;;11.71;49.77;102044.83;117241;1186;23527;-59
2021/10/01 05:57:31;;;;;;;10.90;7.00;;;;;;;11.98;49.71;102046.13;117325;1182;21864;-59
2021/10/01 05:59:59;;;;;;;11.30;6.30;;;;;;;12.20;49.91;102043.86;117305;1185;22733;-59
2021/10/01 06:02:28;;;;;;;12.40;6.80;;;;;;;12.43;49.93;102041.56;117385;1185;23563;-59
2021/10/01 06:04:56;;;;;;;10.20;6.10;;;;;;;12.69;49.93;102041.00;117293;1182;22616;-59
2021/10/01 06:07:24;;;;;;;13.30;6.00;;;;;;;13.00;49.78;102040.80;117339;1185;23436;-59
2021/10/01 06:09:53;;;;;;;10.80;5.90;;;;;;;13.25;49.89;102041.77;117301;1182;21845;-58
2021/10/01 06:12:21;;;;;;;8.40;6.00;;;;;;;13.57;49.58;102039.08;117334;1182;23602;-59
2021/10/01 06:14:50;;;;;;;8.20;5.80;;;;;;;13.76;49.35;102039.45;117273;1185;23543;-59
2021/10/01 06:17:38;;;;;;;7.70;5.20;;;;;;;13.91;49.42;102041.92;117233;1185;22905;-59
2021/10/01 06:20:09;;;;;;;12.10;6.50;;;;;;;14.04;49.58;102048.28;117202;1185;23448;-59
2021/10/01 06:22:38;;;;;;;11.50;6.00;;;;;;;14.21;49.54;102045.98;117311;1185;22619;-59
2021/10/01 06:25:07;;;;;;;10.60;6.60;;;;;;;14.25;49.78;102042.45;117306;1181;23554;-59
2021/10/01 06:27:35;;;;;;;9.50;6.40;;;;;;;14.40;49.97;102039.96;117306;1185;23466;-59
2021/10/01 06:30:06;;;;;;;10.90;6.70;;;;;;;14.64;50.06;102041.50;117307;1182;23551;-59
2021/10/01 06:32:35;;;;;;;12.60;6.80;;;;;;;14.88;49.91;102040.58;117336;1182;22648;-59
2021/10/01 06:35:05;;;;;;;9.40;6.40;;;;;;;15.05;49.89;102037.67;117289;1185;21864;-58
2021/10/01 06:37:33;;;;;;;11.50;6.20;;;;;;;15.36;49.57;102037.35;117276;1184;23452;-58
2021/10/01 06:40:06;;;;;;;11.60;6.00;;;;;;;15.60;49.47;102035.59;117358;1178;21839;-61
2021/10/01 06:42:35;;;;;;;15.10;6.10;;;;;;;15.83;49.55;102034.73;117215;1188;21856;-59
2021/10/01 06:45:22;;;;;;;9.70;5.20;;;;;;;16.04;49.51;102034.05;117309;1182;23544;-59
2021/10/01 06:50:43;;;;;;;9.10;5.30;;;;;;;16.46;49.47;102024.80;117351;1182;23484;-60
2021/10/01 07:22:18;;;;;;;6.80;4.30;;;;;;;18.40;49.20;102012.07;117294;1185;23557;-60
2021/10/01 08:20:57;;;;;;;7.60;3.00;;;;;;;21.59;47.95;101965.58;117301;1183;21858;-52
2021/10/01 08:23:27;;;;;;;4.20;2.40;;;;;;;21.68;48.01;101968.34;117078;1185;23557;-53
2021/10/01 08:25:55;;;;;;;8.30;2.80;;;;;;;21.77;47.94;101967.70;117373;1185;23544;-53
2021/10/01 08:28:25;;;;;;;5.30;2.80;;;;;;;21.87;47.94;101963.96;117338;1182;23547;-54
2021/10/01 08:30:53;;;;;;;10.80;3.10;;;;;;;21.95;47.76;101963.48;117297;1182;22011;-52
2021/10/01 08:33:22;;;;;;;4.90;2.90;;;;;;;22.03;47.68;101960.91;117281;1186;23466;-53
2021/10/01 08:35:50;;;;;;;3.80;2.40;;;;;;;22.13;47.69;101960.01;117444;1176;21863;-52
2021/10/01 08:38:18;;;;;;;4.90;2.70;;;;;;;22.21;47.73;101962.59;117354;1185;23544;-54
2021/10/01 08:40:47;;;;;;;4.90;2.40;;;;;;;22.31;47.73;101956.50;117313;1182;23554;-53
2021/10/01 08:43:16;;;;;;;4.90;2.90;;;;;;;22.44;47.77;101963.02;117350;1182;23567;-53
2021/10/01 08:45:45;;;;;;;7.90;2.80;;;;;;;22.55;47.78;101962.09;117296;1183;23590;-52
2021/10/01 08:48:13;;;;;;;4.10;2.50;;;;;;;22.63;47.71;101960.00;117202;1189;22989;-54
2021/10/01 08:50:42;;;;;;;7.10;2.60;;;;;;;22.71;47.50;101958.27;117168;1185;23543;-53
2021/10/01 08:53:10;;;;;;;3.60;2.40;;;;;;;22.82;47.39;101957.14;117329;1185;21857;-54
2021/10/01 08:55:41;;;;;;;5.10;2.60;;;;;;;22.93;47.22;101954.73;117520;1182;22992;-52
2021/10/01 08:58:09;;;;;;;3.80;2.30;;;;;;;23.02;47.17;101951.67;117371;1185;21857;-53
2021/10/01 09:00:37;;;;;;;6.20;2.90;;;;;;;23.13;47.15;101951.80;117329;1185;21855;-54
2021/10/01 09:03:05;;;;;;;4.20;2.70;;;;;;;23.24;47.07;101952.27;117320;1186;22655;-54
2021/10/01 09:05:35;;;;;;;4.20;2.50;;;;;;;23.30;47.01;101952.94;117154;1185;21857;-52
2021/10/01 09:08:11;;;;;;;4.20;2.80;;;;;;;23.27;47.01;101953.39;117285;1181;21917;-53
2021/10/01 09:11:03;;;;;;;4.40;2.70;;;;;;;23.29;47.03;101952.44;117309;1185;23570;-53
2021/10/01 09:13:36;;;;;;;5.20;2.60;;;;;;;23.33;47.16;101945.66;117285;1186;23544;-53
2021/10/01 09:16:10;;;;;;;3.80;2.10;;;;;;;23.47;47.07;101945.45;117358;1185;22645;-53
2021/10/01 09:18:39;;;;;;;5.30;2.70;;;;;;;23.57;46.94;101943.95;117371;1183;22976;-53
2021/10/01 09:21:12;;;;;;;3.50;2.30;;;;;;;23.66;46.93;101944.62;117382;1182;21867;-52
2021/10/01 09:23:43;;;;;;;4.50;2.40;;;;;;;23.79;46.90;101944.25;117382;1185;21913;-54
2021/10/01 09:26:17;;;;;;;5.20;2.50;;;;;;;23.92;46.96;101942.11;117343;1182;22627;-52
2021/10/01 09:29:02;;;;;;;6.00;2.50;;;;;;;24.03;46.95;101937.67;117322;1183;23543;-54
2021/10/01 09:31:35;;;;;;;6.40;2.00;;;;;;;24.15;46.75;101941.30;117311;1182;22915;-53
2021/10/01 09:34:07;;;;;;;3.50;2.30;;;;;;;24.19;46.87;101943.27;117368;1182;23563;-54
2021/10/01 09:36:35;;;;;;;5.90;2.60;;;;;;;24.24;46.76;101944.46;117352;1182;22610;-52
2021/10/01 09:39:03;;;;;;;4.10;2.30;;;;;;;24.31;46.73;101946.46;117396;1182;22936;-54
2021/10/01 09:41:35;;;;;;;;;;;;;;;24.40;46.59;101942.30;117390;1186;23408;-54
2021/10/01 09:44:04;;;;;;;4.90;2.40;;;;;;;24.44;46.43;101945.02;117359;1175;23752;-54
2021/10/01 09:46:41;;;;;;;4.10;2.20;;;;;;;24.45;46.44;101943.69;117325;1182;23544;-53
2021/10/01 09:49:10;;;;;;;3.30;2.30;;;;;;;24.48;46.43;101940.15;117320;1183;23563;-54
2021/10/01 09:51:38;;;;;;;4.00;2.50;;;;;;;24.51;46.31;101938.96;117363;1184;22835;-54
2021/10/01 09:54:12;;;;;;;4.00;2.00;;;;;;;24.55;46.27;101943.08;117322;1183;21909;-54
2021/10/01 09:56:41;;;;;;;4.10;2.00;;;;;;;24.65;46.08;101947.46;117303;1185;23465;-52
2021/10/01 09:59:09;;;;;;;5.90;2.60;;;;;;;24.76;45.96;101942.99;119398;1183;21766;-54
2021/10/01 10:01:59;;;;;;;3.00;2.00;;;;;;;24.82;45.92;101940.60;118390;1185;23486;-53
2021/10/01 10:04:29;;;;;;;4.90;2.50;;;;;;;24.84;45.78;101941.18;117268;1182;22919;-54
2021/10/01 10:07:06;;;;;;;6.40;2.40;;;;;;;24.83;45.93;101939.81;117308;1185;23467;-54
2021/10/01 10:09:39;;;;;;;4.40;2.50;;;;;;;24.86;45.91;101936.98;117216;1185;23534;-54
2021/10/01 10:12:07;;;;;;;;;;;;;;;24.97;45.85;101937.73;117288;1183;22523;-54
2021/10/01 10:14:47;;;;;;;6.50;3.10;;;;;;;25.02;45.84;101937.30;117201;1182;23913;-53
2021/10/01 10:17:22;;;;;;;8.10;4.90;;;;;;;24.96;45.89;101937.39;117474;1185;21920;-52
2021/10/01 10:19:59;;;;;;;4.80;3.10;;;;;;;25.04;45.96;101933.05;117278;1183;23560;-53
2021/10/01 10:22:29;;;;;;;3.50;2.50;;;;;;;25.19;45.80;101932.13;117300;1185;23547;-54
2021/10/01 10:24:57;;;;;;;5.30;2.20;;;;;;;25.32;45.59;101935.84;117392;1182;21850;-53
2021/10/01 10:37:44;;;;;;;6.30;2.60;;;;;;;25.22;45.63;101927.52;117359;1185;21865;-54
2021/10/01 10:40:13;;;;;;;6.20;2.30;;;;;;;25.17;45.68;101927.59;117332;1185;21871;-62
2021/10/01 10:42:47;;;;;;;7.40;2.70;;;;;;;25.26;45.54;101932.34;117373;1185;23557;-60
2021/10/01 10:45:24;;;;;;;;;;;;;;;25.35;45.36;101925.27;117349;1181;21927;-60
2021/10/01 10:47:55;;;;;;;5.00;2.20;;;;;;;25.39;45.28;101925.22;117346;1183;21870;-60
2021/10/01 10:50:29;;;;;;;5.40;2.70;;;;;;;25.43;45.21;101925.60;117378;1182;22088;-61
2021/10/01 10:53:03;;;;;;;5.60;2.70;;;;;;;25.48;45.20;101920.49;117307;1185;21901;-61
2021/10/01 10:55:35;;;;;;;3.10;2.20;;;;;;;25.53;45.14;101917.17;117355;1183;23547;-62
2021/10/01 10:58:22;;;;;;;4.00;2.40;;;;;;;25.58;45.12;101916.98;117339;1188;23556;-61
2021/10/01 11:00:59;;;;;;;4.00;2.10;;;;;;;25.66;45.01;101915.24;117315;1182;23542;-61
2021/10/01 11:03:34;;;;;;;6.20;2.70;;;;;;;25.66;44.89;101911.65;117357;1185;22332;-62
2021/10/01 11:06:08;;;;;;;3.60;2.10;;;;;;;25.65;44.74;101909.58;117395;1182;23709;-54
2021/10/01 11:08:41;;;;;;;6.10;2.40;;;;;;;25.61;44.59;101909.26;117367;1185;22977;-53
2021/10/01 11:11:37;;;;;;;3.30;2.30;;;;;;;25.52;44.63;101909.54;117396;1182;21961;-59
2021/10/01 11:14:25;;;;;;;3.40;2.30;;;;;;;25.46;44.70;101909.46;117372;1185;22887;-60
2021/10/01 11:16:53;;;;;;;3.60;2.30;;;;;;;25.44;44.62;101906.15;117370;1186;21856;-61
2021/10/01 11:19:35;;;;;;;4.70;2.60;;;;;;;25.45;44.50;101906.28;117372;1184;22622;-61
2021/10/01 11:22:37;;;;;;;5.80;2.30;;;;;;;25.42;44.51;101902.67;117369;1182;23544;-61
2021/10/01 11:25:22;;;;;;;4.60;2.30;;;;;;;25.41;44.53;101902.33;117337;1186;21845;-62
2021/10/01 11:27:57;;;;;;;5.10;2.30;;;;;;;25.38;44.58;101904.60;117338;1185;23572;-61
2021/10/01 11:30:27;;;;;;;7.50;2.90;;;;;;;25.37;44.55;101905.36;117337;1185;22542;-60
2021/10/01 11:33:06;;;;;;;4.20;2.60;;;;;;;25.37;44.53;101903.95;117378;1185;22166;-62
2021/10/01 11:35:44;;;;;;;3.60;2.40;;;;;;;25.42;44.45;101899.23;117305;1185;21859;-60
2021/10/01 11:38:27;;;;;;;3.70;2.50;;;;;;;25.52;44.27;101892.78;117344;1182;22898;-59
2021/10/01 11:41:22;;;;;;;7.60;2.70;;;;;;;25.55;44.11;101888.14;117272;1186;23557;-60
2021/10/01 11:43:55;;;;;;;4.30;2.20;;;;;;;25.53;44.03;101887.90;117359;1186;21860;-59
2021/10/01 11:46:40;;;;;;;4.50;2.30;;;;;;;25.50;43.96;101892.00;117383;1185;22935;-60
2021/10/01 11:49:24;;;;;;;4.10;2.20;;;;;;;25.49;44.00;101891.52;117327;1182;23534;-61
2021/10/01 11:52:09;;;;;;;5.60;2.00;;;;;;;25.53;43.85;101881.09;117363;1182;21874;-63
2021/10/01 11:54:37;;;;;;;6.90;2.40;;;;;;;25.56;43.75;101878.42;117341;1184;21847;-61
2021/10/01 11:57:06;;;;;;;5.80;2.50;;;;;;;25.50;43.71;101881.77;117335;1186;23443;-61
2021/10/01 11:59:58;;;;;;;4.40;2.50;;;;;;;25.46;43.68;101885.04;117335;1184;23469;-60
2021/10/01 12:02:39;;;;;;;3.60;2.40;;;;;;;25.42;43.60;101881.59;117332;1188;21898;-60
2021/10/01 12:05:34;;;;;;;4.90;2.40;;;;;;;25.45;43.58;101881.82;117341;1186;22153;-62
2021/10/01 12:08:24;;;;;;;7.40;2.60;;;;;;;25.46;43.54;101882.14;117271;1189;21865;-60
2021/10/01 12:10:54;;;;;;;4.10;2.20;;;;;;;25.40;43.52;101882.78;117359;1185;21859;-61
2021/10/01 12:13:40;;;;;;;4.10;2.00;;;;;;;25.33;43.48;101880.44;117287;1181;23543;-61
2021/10/01 12:16:12;;;;;;;5.30;2.50;;;;;;;25.26;43.45;101876.28;117356;1183;22643;-61
2021/10/01 12:18:55;;;;;;;3.70;2.20;;;;;;;25.24;43.39;101872.99;117362;1185;23538;-61
2021/10/01 12:21:26;;;;;;;4.10;2.50;;;;;;;25.22;43.37;101867.89;117328;1186;21855;-60
2021/10/01 12:24:10;;;;;;;6.30;2.20;;;;;;;25.15;43.29;101870.73;117372;1183;23557;-62
2021/10/01 12:26:43;;;;;;;4.20;2.00;;;;;;;25.11;43.25;101870.41;117290;1185;22822;-61
2021/10/01 12:29:23;;;;;;;5.30;2.20;;;;;;;25.06;43.17;101868.34;117315;1182;21889;-61
2021/10/01 12:31:53;;;;;;;;;;;;;;;25.01;43.10;101868.94;117455;1185;22923;-62
2021/10/01 12:34:33;;;;;;;9.10;2.60;;;;;;;24.94;43.10;101868.56;117327;1183;22918;-61
2021/10/01 12:37:07;;;;;;;;;;;;;;;24.86;42.95;101866.77;117324;1186;21838;-60
2021/10/01 12:39:36;;;;;;;6.30;2.30;;;;;;;24.78;42.92;101865.91;117323;1183;23432;-61
2021/10/01 12:42:12;;;;;;;3.30;1.90;;;;;;;24.74;42.90;101865.95;117351;1185;21863;-62
2021/10/01 12:44:43;;;;;;;4.00;2.50;;;;;;;24.70;42.81;101868.27;117343;1185;21869;-61
2021/10/01 12:47:19;;;;;;;5.60;2.30;;;;;;;24.68;42.71;101860.48;117326;1182;23557;-60
2021/10/01 12:50:12;;;;;;;8.00;2.50;;;;;;;24.64;42.63;101852.94;117348;1184;22916;-60
2021/10/01 12:53:01;;;;;;;4.90;2.40;;;;;;;24.59;42.66;101853.14;117363;1186;21848;-61
2021/10/01 12:55:32;;;;;;;3.80;2.00;;;;;;;24.62;42.72;101855.35;117304;1183;24159;-61
2021/10/01 12:58:01;;;;;;;5.60;1.80;;;;;;;24.63;42.41;101849.73;117320;1183;21859;-61
2021/10/01 13:00:31;;;;;;;5.60;2.50;;;;;;;24.59;42.33;101850.09;117369;1185;21853;-61
2021/10/01 13:03:08;;;;;;;4.80;2.30;;;;;;;24.53;42.39;101851.32;117251;1186;23442;-61
2021/10/01 13:05:45;;;;;;;5.90;2.40;;;;;;;24.46;42.40;101846.61;117301;1189;22500;-62
2021/10/01 13:08:15;;;;;;;6.50;2.20;;;;;;;24.44;42.36;101849.92;117378;1182;21867;-62
2021/10/01 13:10:52;;;;;;;4.60;2.10;;;;;;;24.39;42.23;101844.09;117327;1185;23544;-61
2021/10/01 13:13:21;;;;;;;8.00;2.70;;;;;;;24.31;42.18;101841.92;117317;1185;21858;-62
2021/10/01 13:15:51;;;;;;;3.00;2.30;;;;;;;24.20;42.21;101840.81;117342;1185;23569;-61
2021/10/01 13:18:40;;;;;;;4.00;2.00;;;;;;;24.15;42.29;101835.34;117311;1186;23601;-61
2021/10/01 13:21:14;;;;;;;4.50;2.40;;;;;;;24.11;42.36;101836.20;117320;1185;21861;-61
2021/10/01 13:23:54;;;;;;;7.50;3.00;;;;;;;24.11;42.43;101841.25;117316;1185;21866;-62